createdAt,value
2018-07-17T00:00:58.459Z,95326.67
2018-07-17T00:03:29.273Z,95332.88
2018-07-17T00:06:00.273Z,95330.45
2018-07-17T00:08:30.215Z,95330.45
2018-07-17T00:11:00.238Z,95331.34
2018-07-17T00:13:30.230Z,95336.45
2018-07-17T00:16:00.200Z,95328.66
2018-07-17T00:18:29.827Z,95331.91
2018-07-17T00:20:59.789Z,95334.06
2018-07-17T00:23:29.717Z,95333.00
2018-07-17T00:26:00.778Z,95334.06
2018-07-17T00:28:30.721Z,95334.06
2018-07-17T00:31:00.664Z,95334.59
2018-07-17T00:33:30.896Z,95331.38
2018-07-17T00:36:00.878Z,95326.51
2018-07-17T00:38:30.761Z,95325.98
2018-07-17T00:41:00.720Z,95327.33
2018-07-17T00:43:30.628Z,95293.75
2018-07-17T00:46:00.644Z,95331.34
2018-07-17T00:48:30.546Z,95327.03
2018-07-17T00:51:00.591Z,95331.89
2018-07-17T00:53:30.502Z,95329.20
2018-07-17T00:56:00.538Z,95333.27
2018-07-17T00:58:30.456Z,95329.52
2018-07-17T01:00:59.456Z,95328.70
2018-07-17T01:03:34.385Z,95327.64
2018-07-17T01:06:09.332Z,95337.30
2018-07-17T01:08:44.511Z,95336.53
2018-07-17T01:11:19.581Z,95334.91
2018-07-17T01:13:55.537Z,95338.95
2018-07-17T01:16:25.490Z,95338.70
2018-07-17T01:18:55.427Z,95331.68
2018-07-17T01:21:25.361Z,95321.46
2018-07-17T01:23:55.293Z,95326.33
2018-07-17T01:26:25.240Z,95326.90
2018-07-17T01:28:55.168Z,95323.38
2018-07-17T01:31:25.115Z,95321.98
2018-07-17T01:33:55.097Z,95331.14
2018-07-17T01:36:25.066Z,95326.02
2018-07-17T01:38:54.968Z,95328.44
2018-07-17T01:41:24.912Z,95322.24
2018-07-17T01:43:54.816Z,95321.44
2018-07-17T01:46:24.785Z,95324.41
2018-07-17T01:48:54.723Z,95318.45
2018-07-17T01:51:24.665Z,95319.56
2018-07-17T01:53:54.560Z,95317.11
2018-07-17T01:56:24.114Z,95321.14
2018-07-17T01:58:54.020Z,95321.70
2018-07-17T02:01:23.943Z,95326.28
2018-07-17T02:03:53.823Z,95324.65
2018-07-17T02:06:23.374Z,95326.80
2018-07-17T02:08:53.275Z,95329.75
2018-07-17T02:11:23.224Z,95328.67
2018-07-17T02:13:53.112Z,95328.91
2018-07-17T02:16:23.096Z,95323.29
2018-07-17T02:18:53.094Z,95322.47
2018-07-17T02:21:23.060Z,95315.48
2018-07-17T02:23:52.562Z,95322.22
2018-07-17T02:26:22.511Z,95320.59
2018-07-17T02:28:52.522Z,95319.25
2018-07-17T02:31:22.477Z,95316.05
2018-07-17T02:33:52.389Z,95312.28
2018-07-17T02:36:22.324Z,95320.62
2018-07-17T02:38:52.266Z,95322.48
2018-07-17T02:41:22.188Z,95320.38
2018-07-17T02:43:52.109Z,95323.31
2018-07-17T02:46:22.005Z,95328.97
2018-07-17T02:48:51.975Z,95332.44
2018-07-17T02:51:21.868Z,95329.22
2018-07-17T02:53:51.905Z,95330.87
2018-07-17T02:56:21.812Z,95328.98
2018-07-17T02:58:51.707Z,95330.34
2018-07-17T03:01:21.615Z,95328.19
2018-07-17T03:03:51.547Z,95330.89
2018-07-17T03:06:21.441Z,95338.70
2018-07-17T03:08:51.391Z,95334.91
2018-07-17T03:11:21.304Z,95336.80
2018-07-17T03:13:51.265Z,95335.45
2018-07-17T03:16:21.148Z,95343.28
2018-07-17T03:18:51.138Z,95337.37
2018-07-17T03:21:21.053Z,95341.16
2018-07-17T03:23:50.981Z,95342.78
2018-07-17T03:26:20.899Z,95349.23
2018-07-17T03:28:50.874Z,95350.85
2018-07-17T03:31:20.882Z,95351.37
2018-07-17T03:33:50.877Z,95354.05
2018-07-17T03:36:20.862Z,95364.00
2018-07-17T03:38:50.856Z,95359.44
2018-07-17T03:41:20.843Z,95364.83
2018-07-17T03:43:50.424Z,95362.96
2018-07-17T03:46:20.381Z,95364.83
2018-07-17T03:48:52.267Z,95358.11
2018-07-17T03:51:22.582Z,95364.55
2018-07-17T03:53:57.789Z,95364.55
2018-07-17T03:56:32.617Z,95375.59
2018-07-17T03:59:04.826Z,95366.72
2018-07-17T04:01:35.829Z,95377.50
2018-07-17T04:04:07.427Z,95375.88
2018-07-17T04:06:38.307Z,95377.76
2018-07-17T04:09:09.284Z,95381.55
2018-07-17T04:11:39.909Z,95377.52
2018-07-17T04:14:09.884Z,95382.33
2018-07-17T04:16:57.298Z,95385.31
2018-07-17T04:19:27.672Z,95385.84
2018-07-17T04:21:57.634Z,95380.73
2018-07-17T04:24:27.596Z,95381.28
2018-07-17T04:26:57.553Z,95383.98
2018-07-17T04:29:27.688Z,95383.16
2018-07-17T04:31:57.669Z,95384.79
2018-07-17T04:34:27.649Z,95388.25
2018-07-17T04:36:57.638Z,95386.61
2018-07-17T04:39:27.626Z,95389.00
2018-07-17T04:41:57.588Z,95388.72
2018-07-17T04:44:27.631Z,95388.13
2018-07-17T04:46:57.604Z,95387.27
2018-07-17T04:49:27.621Z,95392.56
2018-07-17T04:51:57.587Z,95400.61
2018-07-17T04:54:28.427Z,95391.88
2018-07-17T04:56:58.391Z,95392.90
2018-07-17T04:59:28.368Z,95391.20
2018-07-17T05:01:58.391Z,95397.55
2018-07-17T05:04:28.438Z,95402.26
2018-07-17T05:06:58.448Z,95399.69
2018-07-17T05:09:28.414Z,95402.47
2018-07-17T05:11:57.966Z,95399.88
2018-07-17T05:14:28.071Z,95408.11
2018-07-17T05:16:58.084Z,95407.08
2018-07-17T05:19:28.057Z,95411.74
2018-07-17T05:21:58.322Z,95412.11
2018-07-17T05:24:28.309Z,95411.41
2018-07-17T05:26:58.359Z,95406.86
2018-07-17T05:29:28.317Z,95412.88
2018-07-17T05:31:58.281Z,95407.77
2018-07-17T05:34:28.286Z,95407.28
2018-07-17T05:36:58.314Z,95411.36
2018-07-17T05:39:28.318Z,95407.03
2018-07-17T05:41:59.019Z,95407.72
2018-07-17T05:44:29.099Z,95415.05
2018-07-17T05:46:59.100Z,95412.36
2018-07-17T05:49:29.108Z,95414.95
2018-07-17T05:51:59.116Z,95414.14
2018-07-17T05:54:29.100Z,95415.44
2018-07-17T05:56:58.688Z,95418.30
2018-07-17T05:59:28.680Z,95416.66
2018-07-17T06:01:58.731Z,95414.97
2018-07-17T06:04:28.812Z,95413.37
2018-07-17T06:06:58.837Z,95415.98
2018-07-17T06:09:28.862Z,95413.28
2018-07-17T06:11:58.814Z,95412.07
2018-07-17T06:14:28.750Z,95414.67
2018-07-17T06:16:58.335Z,95405.73
2018-07-17T06:19:28.319Z,95404.84
2018-07-17T06:21:58.275Z,95406.70
2018-07-17T06:24:28.221Z,95407.66
2018-07-17T06:26:57.784Z,95323.27
2018-07-17T06:29:27.784Z,95409.88
2018-07-17T06:31:57.825Z,95411.75
2018-07-17T06:34:28.062Z,95409.31
2018-07-17T06:36:58.127Z,95405.16
2018-07-17T06:39:28.046Z,95407.41
2018-07-17T06:41:57.621Z,95405.56
2018-07-17T06:44:27.613Z,95407.88
2018-07-17T06:46:57.603Z,95405.00
2018-07-17T06:49:27.556Z,95400.10
2018-07-17T06:51:57.576Z,95405.31
2018-07-17T06:54:27.548Z,95406.28
2018-07-17T06:56:57.534Z,95407.09
2018-07-17T06:59:27.523Z,95408.09
2018-07-17T07:01:57.518Z,95412.06
2018-07-17T07:04:27.500Z,95415.69
2018-07-17T07:06:57.483Z,95413.23
2018-07-17T07:09:27.453Z,95408.30
2018-07-17T07:11:57.496Z,95413.30
2018-07-17T07:14:27.069Z,95410.06
2018-07-17T07:16:57.044Z,95415.47
2018-07-17T07:19:26.975Z,95414.67
2018-07-17T07:21:57.003Z,95409.44
2018-07-17T07:24:26.985Z,95417.28
2018-07-17T07:26:56.590Z,95414.91
2018-07-17T07:29:26.609Z,95416.23
2018-07-17T07:31:56.235Z,95412.37
2018-07-17T07:34:25.754Z,95410.45
2018-07-17T07:36:55.820Z,95411.05
2018-07-17T07:39:25.834Z,95414.33
2018-07-17T07:41:56.076Z,95415.54
2018-07-17T07:44:26.025Z,95414.89
2018-07-17T07:46:55.635Z,95414.44
2018-07-17T07:49:25.683Z,95417.42
2018-07-17T07:51:55.696Z,95414.94
2018-07-17T07:54:25.696Z,95417.02
2018-07-17T07:56:55.679Z,95418.03
2018-07-17T07:59:26.131Z,95414.84
2018-07-17T08:01:56.129Z,95410.17
2018-07-17T08:04:26.142Z,95421.71
2018-07-17T08:06:56.128Z,95420.86
2018-07-17T08:09:26.106Z,95424.72
2018-07-17T08:11:56.146Z,95422.22
2018-07-17T08:14:26.128Z,95425.52
2018-07-17T08:16:56.905Z,95428.27
2018-07-17T08:19:26.885Z,95431.69
2018-07-17T08:21:56.858Z,95433.74
2018-07-17T08:24:26.850Z,95436.59
2018-07-17T08:26:56.819Z,95432.95
2018-07-17T08:29:26.805Z,95428.73
2018-07-17T08:31:56.470Z,95437.41
2018-07-17T08:34:26.400Z,95428.53
2018-07-17T08:36:56.371Z,95434.91
2018-07-17T08:39:26.390Z,95436.50
2018-07-17T08:41:56.006Z,95438.13
2018-07-17T08:44:25.905Z,95440.60
2018-07-17T08:46:55.923Z,95441.97
2018-07-17T08:49:25.878Z,95443.12
2018-07-17T08:51:55.904Z,95441.83
2018-07-17T08:54:25.918Z,95444.69
2018-07-17T08:56:55.845Z,95442.33
2018-07-17T08:59:25.843Z,95449.95
2018-07-17T09:01:55.479Z,95442.20
2018-07-17T09:04:25.529Z,95449.38
2018-07-17T09:06:55.546Z,95450.64
2018-07-17T09:09:25.551Z,95449.35
2018-07-17T09:11:55.589Z,95452.22
2018-07-17T09:14:25.575Z,95442.36
2018-07-17T09:16:55.628Z,95454.67
2018-07-17T09:19:25.597Z,95452.71
2018-07-17T09:21:55.597Z,95447.84
2018-07-17T09:24:25.700Z,95446.58
2018-07-17T09:26:55.820Z,95449.23
2018-07-17T09:29:25.740Z,95450.63
2018-07-17T09:31:55.741Z,95451.13
2018-07-17T09:34:25.752Z,95447.77
2018-07-17T09:36:55.736Z,95451.06
2018-07-17T09:39:25.382Z,95456.08
2018-07-17T09:41:55.370Z,95457.87
2018-07-17T09:44:25.538Z,95456.88
2018-07-17T09:46:55.337Z,95465.05
2018-07-17T09:49:25.415Z,95462.16
2018-07-17T09:51:55.512Z,95461.77
2018-07-17T09:54:25.579Z,95459.52
2018-07-17T09:56:55.530Z,95464.20
2018-07-17T09:59:25.564Z,95457.08
2018-07-17T10:02:00.561Z,95462.19
2018-07-17T10:04:30.558Z,95458.19
2018-07-17T10:07:00.522Z,95469.91
2018-07-17T10:09:30.620Z,95467.20
2018-07-17T10:12:00.533Z,95463.70
2018-07-17T10:14:30.598Z,95465.72
2018-07-17T10:17:00.537Z,95464.78
2018-07-17T10:19:30.584Z,95465.34
2018-07-17T10:22:00.595Z,95461.52
2018-07-17T10:24:30.585Z,95461.84
2018-07-17T10:27:00.793Z,95469.40
2018-07-17T10:29:30.943Z,95466.70
2018-07-17T10:32:02.425Z,95469.12
2018-07-17T10:34:32.601Z,95457.56
2018-07-17T10:37:02.618Z,95452.81
2018-07-17T10:39:34.298Z,95460.80
2018-07-17T10:42:05.594Z,95456.57
2018-07-17T10:44:35.743Z,95457.43
2018-07-17T10:47:05.940Z,95448.44
2018-07-17T10:49:39.648Z,95456.58
2018-07-17T10:52:09.872Z,95452.13
2018-07-17T10:54:39.889Z,95459.22
2018-07-17T10:57:09.984Z,95456.19
2018-07-17T10:59:39.989Z,95449.96
2018-07-17T11:02:11.615Z,95449.75
2018-07-17T11:04:41.645Z,95448.75
2018-07-17T11:07:11.716Z,95442.91
2018-07-17T11:09:41.757Z,95445.53
2018-07-17T11:12:11.762Z,95445.11
2018-07-17T11:14:41.800Z,95448.22
2018-07-17T11:17:11.456Z,95447.02
2018-07-17T11:19:41.357Z,95436.14
2018-07-17T11:22:11.320Z,95439.33
2018-07-17T11:24:43.502Z,95440.95
2018-07-17T11:27:18.377Z,95437.38
2018-07-17T11:29:51.713Z,95436.61
2018-07-17T11:32:22.893Z,95435.58
2018-07-17T11:34:52.886Z,95430.09
2018-07-17T11:40:22.926Z,95428.27
2018-07-17T11:42:52.861Z,95434.08
2018-07-17T11:45:23.573Z,95419.38
2018-07-17T11:47:53.579Z,95419.49
2018-07-17T11:50:23.480Z,95427.60
2018-07-17T11:52:53.386Z,95427.14
2018-07-17T11:55:23.316Z,95417.97
2018-07-17T11:57:53.216Z,95418.16
2018-07-17T12:00:23.358Z,95419.27
2018-07-17T12:02:53.825Z,95418.19
2018-07-17T12:05:23.751Z,95404.27
2018-07-17T12:07:55.037Z,95408.09
2018-07-17T12:10:26.028Z,95412.76
2018-07-17T12:12:57.278Z,95414.89
2018-07-17T12:15:27.421Z,95421.55
2018-07-17T12:17:56.970Z,95418.17
2018-07-17T12:20:27.087Z,95409.25
2018-07-17T12:22:56.907Z,95418.42
2018-07-17T12:25:26.874Z,95414.75
2018-07-17T12:27:56.828Z,95399.80
2018-07-17T12:30:26.708Z,95409.86
2018-07-17T12:32:56.669Z,95414.45
2018-07-17T12:35:26.666Z,95402.62
2018-07-17T12:37:56.694Z,95408.25
2018-07-17T12:40:26.222Z,95403.42
2018-07-17T12:42:56.116Z,95413.92
2018-07-17T12:45:25.690Z,95418.81
2018-07-17T12:47:55.602Z,95421.73
2018-07-17T12:50:25.626Z,95425.03
2018-07-17T12:52:55.582Z,95419.06
2018-07-17T12:55:25.538Z,95422.42
2018-07-17T12:57:55.456Z,95427.66
2018-07-17T13:00:25.401Z,95422.25
2018-07-17T13:02:55.389Z,95427.94
2018-07-17T13:05:25.345Z,95423.64
2018-07-17T13:07:57.012Z,95420.64
2018-07-17T13:10:26.933Z,95421.73
2018-07-17T13:12:56.885Z,95411.36
2018-07-17T13:15:26.923Z,95418.30
2018-07-17T13:17:56.865Z,95420.95
2018-07-17T13:20:27.052Z,95421.09
2018-07-17T13:22:56.602Z,95418.47
2018-07-17T13:25:26.523Z,95420.77
2018-07-17T13:27:56.437Z,95433.39
2018-07-17T13:30:26.379Z,95432.08
2018-07-17T13:32:56.293Z,95430.67
2018-07-17T13:35:26.508Z,95434.77
2018-07-17T13:37:56.472Z,95441.75
2018-07-17T13:40:26.091Z,95444.92
2018-07-17T13:42:56.030Z,95449.03
2018-07-17T13:45:38.079Z,95445.67
2018-07-17T13:48:08.728Z,95446.55
2018-07-17T13:50:40.148Z,95452.73
2018-07-17T13:53:10.936Z,95449.89
2018-07-17T13:55:41.586Z,95454.41
2018-07-17T13:58:12.195Z,95459.95
2018-07-17T14:00:45.702Z,95457.94
2018-07-17T14:03:20.617Z,95474.13
2018-07-17T14:05:51.110Z,95477.56
2018-07-17T14:08:27.810Z,95486.82
2018-07-17T14:10:59.277Z,95502.73
2018-07-17T14:13:31.046Z,95502.27
2018-07-17T14:16:02.366Z,95489.87
2018-07-17T14:18:32.716Z,95481.59
2018-07-17T14:23:31.640Z,95481.35
2018-07-17T14:26:01.607Z,95477.20
2018-07-17T14:28:31.592Z,95473.62
2018-07-17T14:31:01.649Z,95485.25
2018-07-17T14:33:31.653Z,95482.36
2018-07-17T14:36:01.636Z,95492.06
2018-07-17T14:38:31.562Z,95491.59
2018-07-17T14:41:01.553Z,95476.76
2018-07-17T14:43:31.495Z,95483.05
2018-07-17T14:46:01.838Z,95485.39
2018-07-17T14:48:31.814Z,95486.27
2018-07-17T14:51:02.009Z,95480.14
2018-07-17T14:53:31.952Z,95486.66
2018-07-17T14:56:01.884Z,95498.23
2018-07-17T14:58:31.857Z,95495.33
2018-07-17T15:01:01.882Z,95494.50
2018-07-17T15:03:32.260Z,95489.51
2018-07-17T15:06:02.604Z,95490.77
2018-07-17T15:08:32.564Z,95486.13
2018-07-17T15:16:00.369Z,95487.28
2018-07-17T15:18:30.228Z,95475.84
2018-07-17T15:21:00.736Z,95480.41
2018-07-17T15:23:30.707Z,95482.73
2018-07-17T15:26:00.646Z,95479.73
2018-07-17T15:28:30.282Z,95473.86
2018-07-17T15:31:06.874Z,95471.84
2018-07-17T15:33:41.270Z,95476.75
2018-07-17T15:36:11.321Z,95462.98
2018-07-17T15:38:42.057Z,95461.92
2018-07-17T15:41:12.493Z,95459.50
2018-07-17T15:43:42.423Z,95452.15
2018-07-17T15:46:12.468Z,95458.53
2018-07-17T15:48:42.004Z,95458.98
2018-07-17T15:51:12.096Z,95455.17
2018-07-17T15:53:42.263Z,95457.46
2018-07-17T15:56:12.460Z,95454.94
2018-07-17T15:58:42.024Z,95453.17
2018-07-17T16:01:12.021Z,95455.72
2018-07-17T16:03:41.968Z,95451.41
2018-07-17T16:06:11.948Z,95449.64
2018-07-17T16:08:41.938Z,95438.86
2018-07-17T16:11:11.885Z,95443.77
2018-07-17T16:13:42.291Z,95435.95
2018-07-17T16:16:11.829Z,95435.95
2018-07-17T16:18:41.989Z,95439.95
2018-07-17T16:21:12.232Z,95439.56
2018-07-17T16:23:46.939Z,95442.55
2018-07-17T16:26:18.833Z,95446.20
2018-07-17T16:28:49.029Z,95447.81
2018-07-17T16:31:19.087Z,95447.25
2018-07-17T16:33:49.013Z,95449.81
2018-07-17T16:36:19.172Z,95444.02
2018-07-17T16:38:49.609Z,95447.42
2018-07-17T16:41:19.815Z,95446.27
2018-07-17T16:43:49.999Z,95450.37
2018-07-17T16:46:20.179Z,95445.25
2018-07-17T16:48:50.437Z,95452.78
2018-07-17T16:51:20.837Z,95450.83
2018-07-17T16:53:51.125Z,95454.93
2018-07-17T16:56:20.880Z,95448.55
2018-07-17T16:58:51.105Z,95445.95
2018-07-17T17:01:21.575Z,95454.72
2018-07-17T17:03:51.874Z,95454.09
2018-07-17T17:06:22.330Z,95450.20
2018-07-17T17:08:52.582Z,95451.25
2018-07-17T17:11:22.577Z,95452.38
2018-07-17T17:13:52.564Z,95446.69
2018-07-17T17:16:22.712Z,95456.02
2018-07-17T17:18:52.879Z,95459.32
2018-07-17T17:21:24.922Z,95453.50
2018-07-17T17:23:54.973Z,95464.89
2018-07-17T17:26:24.879Z,95462.02
2018-07-17T17:28:54.868Z,95461.80
2018-07-17T17:31:24.795Z,95467.37
2018-07-17T17:33:54.757Z,95466.91
2018-07-17T17:36:24.730Z,95469.86
2018-07-17T17:38:54.628Z,95465.84
2018-07-17T17:41:24.507Z,95471.68
2018-07-17T17:43:54.439Z,95473.50
2018-07-17T17:46:24.340Z,95470.30
2018-07-17T17:48:54.354Z,95474.50
2018-07-17T17:51:24.252Z,95476.22
2018-07-17T17:53:54.168Z,95477.53
2018-07-17T17:56:23.706Z,95478.64
2018-07-17T17:58:53.652Z,95477.50
2018-07-17T18:01:23.549Z,95479.03
2018-07-17T18:03:53.499Z,95482.88
2018-07-17T18:06:23.412Z,95485.12
2018-07-17T18:08:53.400Z,95497.34
2018-07-17T18:11:22.907Z,95488.95
2018-07-17T18:13:52.792Z,95486.72
2018-07-17T18:16:22.731Z,95495.53
2018-07-17T18:18:52.764Z,95497.98
2018-07-17T18:21:22.723Z,95499.67
2018-07-17T18:23:52.683Z,95499.77
2018-07-17T18:26:22.600Z,95502.97
2018-07-17T18:28:52.548Z,95515.75
2018-07-17T18:31:26.592Z,95515.12
2018-07-17T18:33:56.785Z,95515.45
2018-07-17T18:36:26.938Z,95522.63
2018-07-17T18:38:57.658Z,95522.86
2018-07-17T18:41:29.718Z,95528.70
2018-07-17T18:44:03.610Z,95529.55
2018-07-17T18:46:35.074Z,95523.69
2018-07-17T18:49:06.914Z,95530.55
2018-07-17T18:51:39.185Z,95531.34
2018-07-17T18:54:10.814Z,95541.09
2018-07-17T18:56:43.607Z,95545.89
2018-07-17T18:59:15.095Z,95546.62
2018-07-17T19:01:48.694Z,95547.81
2018-07-17T19:04:20.354Z,95556.29
2018-07-17T19:06:52.712Z,95551.02
2018-07-17T19:09:24.074Z,95554.61
2018-07-17T19:11:55.906Z,95557.95
2018-07-17T19:14:26.842Z,95562.48
2018-07-17T19:16:57.012Z,95565.20
2018-07-17T19:19:26.952Z,95567.34
2018-07-17T19:21:57.014Z,95562.00
2018-07-17T19:24:27.047Z,95566.72
2018-07-17T19:26:57.142Z,95567.44
2018-07-17T19:29:27.194Z,95564.17
2018-07-17T19:31:57.641Z,95564.28
2018-07-17T19:34:27.831Z,95560.20
2018-07-17T19:36:57.896Z,95568.49
2018-07-17T19:39:27.929Z,95563.11
2018-07-17T19:41:57.958Z,95563.03
2018-07-17T19:44:28.004Z,95564.44
2018-07-17T19:46:58.012Z,95566.66
2018-07-17T19:49:28.001Z,95565.84
2018-07-17T19:51:58.053Z,95572.81
2018-07-17T19:54:28.209Z,95570.39
2018-07-17T19:56:58.252Z,95574.91
2018-07-17T19:59:28.360Z,95573.72
2018-07-17T20:01:59.295Z,95580.09
2018-07-17T20:04:29.338Z,95579.99
2018-07-17T20:06:58.958Z,95584.25
2018-07-17T20:09:28.956Z,95584.98
2018-07-17T20:11:58.969Z,95586.81
2018-07-17T20:14:29.124Z,95594.59
2018-07-17T20:16:58.868Z,95592.11
2018-07-17T20:19:28.884Z,95589.55
2018-07-17T20:21:58.879Z,95597.58
2018-07-17T20:24:28.594Z,95595.55
2018-07-17T20:26:58.612Z,95590.55
2018-07-17T20:29:28.245Z,95594.94
2018-07-17T20:31:58.276Z,95592.81
2018-07-17T20:34:28.289Z,95591.82
2018-07-17T20:36:58.424Z,95597.81
2018-07-17T20:39:28.443Z,95602.20
2018-07-17T20:41:58.577Z,95607.11
2018-07-17T20:44:28.604Z,95640.03
2018-07-17T20:46:58.611Z,95634.38
2018-07-17T20:49:28.598Z,95634.30
2018-07-17T20:51:58.823Z,95635.32
2018-07-17T20:54:28.818Z,95634.17
2018-07-17T20:56:59.897Z,95637.88
2018-07-17T20:59:30.252Z,95630.12
2018-07-17T21:02:00.276Z,95639.20
2018-07-17T21:04:30.245Z,95644.22
2018-07-17T21:07:00.243Z,95643.20
2018-07-17T21:09:30.231Z,95659.30
2018-07-17T21:12:00.259Z,95643.78
2018-07-17T21:14:30.369Z,95646.36
2018-07-17T21:17:00.410Z,95636.48
2018-07-17T21:19:30.421Z,95641.20
2018-07-17T21:22:00.566Z,95630.44
2018-07-17T21:24:30.603Z,95634.84
2018-07-17T21:27:00.616Z,95633.81
2018-07-17T21:29:30.644Z,95634.68
2018-07-17T21:32:00.728Z,95634.02
2018-07-17T21:34:30.746Z,95641.02
2018-07-17T21:37:00.770Z,95640.87
2018-07-17T21:39:30.748Z,95646.12
2018-07-17T21:42:00.752Z,95647.86
2018-07-17T21:44:30.741Z,95649.06
2018-07-17T21:47:00.738Z,95636.98
2018-07-17T21:49:30.966Z,95642.77
2018-07-17T21:52:01.000Z,95642.80
2018-07-17T21:54:31.024Z,95644.44
2018-07-17T21:57:01.191Z,95644.67
2018-07-17T21:59:31.209Z,95654.68
2018-07-17T22:02:01.305Z,95652.56
2018-07-17T22:04:31.393Z,95642.91
2018-07-17T22:07:01.383Z,95645.95
2018-07-17T22:09:31.406Z,95641.45
2018-07-17T22:12:01.380Z,95643.36
2018-07-17T22:14:31.416Z,95643.11
2018-07-17T22:17:01.363Z,95640.39
2018-07-17T22:19:30.965Z,95637.69
2018-07-17T22:22:01.826Z,95636.09
2018-07-17T22:24:31.440Z,95636.63
2018-07-17T22:27:01.446Z,95632.05
2018-07-17T22:29:31.090Z,95636.66
2018-07-17T22:32:01.100Z,95639.41
2018-07-17T22:34:31.101Z,95646.97
2018-07-17T22:37:01.185Z,95639.13
2018-07-17T22:39:31.206Z,95637.78
2018-07-17T22:42:01.279Z,95653.99
2018-07-17T22:44:31.348Z,95650.52
2018-07-17T22:47:01.320Z,95645.41
2018-07-17T22:49:31.380Z,95648.64
2018-07-17T22:52:01.369Z,95646.48
2018-07-17T22:54:31.432Z,95641.65
2018-07-17T22:57:01.486Z,95638.95
2018-07-17T22:59:31.564Z,95628.99
2018-07-17T23:02:01.606Z,95630.34
2018-07-17T23:04:31.691Z,95625.48
2018-07-17T23:07:01.727Z,95627.62
2018-07-17T23:09:31.784Z,95622.80
2018-07-17T23:12:01.846Z,95625.23
2018-07-17T23:14:31.922Z,95622.53
2018-07-17T23:17:01.968Z,95629.27
2018-07-17T23:19:31.993Z,95623.07
2018-07-17T23:22:01.981Z,95624.42
2018-07-17T23:24:32.018Z,95623.35
2018-07-17T23:27:02.055Z,95622.53
2018-07-17T23:29:32.107Z,95633.03
2018-07-17T23:32:02.139Z,95624.95
2018-07-17T23:34:32.211Z,95624.67
2018-07-17T23:37:01.860Z,95623.60
2018-07-17T23:39:31.956Z,95628.19
2018-07-17T23:42:02.009Z,95629.50
2018-07-17T23:44:32.051Z,95628.43
2018-07-17T23:47:02.048Z,95627.58
2018-07-17T23:49:38.185Z,95620.84
2018-07-17T23:52:08.334Z,95627.05
2018-07-17T23:54:38.363Z,95621.36
2018-07-17T23:57:08.382Z,95628.91
2018-07-17T23:59:38.439Z,95631.08
